X  Close Metar Aviation Weather Data     KPNS Pensacola International Airport
Temperature
91°F Temperature
77°F Dewpoint
63% Humidity



Wind
10 MPH
16 KM/H
4 M/S
9 KTS



290°
WNW
Current Conditions

Clear Clear
Pressure 1013.52 (hPa) - 29.93 (inHg)
Visibility 10 (mile) - 16.1 (km)
Airport
Airport-code KPNS

Location: Pensacola International Airport
Distance: 9 (mi)

Metar:
KPNS 161553Z 29009KT 10SM CLR 33/25 A2993 RMK AO2 SLP137 T03330250

Time: 16-08-2022 10:53 CDT